sensor_id;sensor_type;location;lat;lon;timestamp;P1;durP1;ratioP1;P2;durP2;ratioP2
44078;SDS011;29744;49.078;12.878;2022-07-29T00:00:43;3.45;;;2.40;;
44078;SDS011;29744;49.078;12.878;2022-07-29T00:05:46;3.20;;;2.58;;
44078;SDS011;29744;49.078;12.878;2022-07-29T00:10:46;2.83;;;2.17;;
44078;SDS011;29744;49.078;12.878;2022-07-29T00:15:47;3.40;;;2.38;;
44078;SDS011;29744;49.078;12.878;2022-07-29T00:20:47;4.13;;;2.60;;
44078;SDS011;29744;49.078;12.878;2022-07-29T00:25:47;3.50;;;2.50;;
44078;SDS011;29744;49.078;12.878;2022-07-29T00:30:48;4.60;;;2.53;;
44078;SDS011;29744;49.078;12.878;2022-07-29T00:35:48;4.28;;;2.47;;
44078;SDS011;29744;49.078;12.878;2022-07-29T00:40:49;3.15;;;2.20;;
44078;SDS011;29744;49.078;12.878;2022-07-29T00:45:49;3.30;;;2.22;;
44078;SDS011;29744;49.078;12.878;2022-07-29T00:50:49;3.78;;;2.67;;
44078;SDS011;29744;49.078;12.878;2022-07-29T00:55:50;3.47;;;2.40;;
44078;SDS011;29744;49.078;12.878;2022-07-29T01:00:50;3.17;;;2.15;;
44078;SDS011;29744;49.078;12.878;2022-07-29T01:05:51;3.03;;;2.30;;
44078;SDS011;29744;49.078;12.878;2022-07-29T01:10:52;3.35;;;2.17;;
44078;SDS011;29744;49.078;12.878;2022-07-29T01:15:56;2.50;;;1.88;;
44078;SDS011;29744;49.078;12.878;2022-07-29T01:31:50;3.25;;;2.10;;
44078;SDS011;29744;49.078;12.878;2022-07-29T01:42:17;2.90;;;2.15;;
44078;SDS011;29744;49.078;12.878;2022-07-29T01:47:31;3.13;;;2.22;;
44078;SDS011;29744;49.078;12.878;2022-07-29T01:52:45;3.20;;;2.08;;
44078;SDS011;29744;49.078;12.878;2022-07-29T01:57:49;3.17;;;2.08;;
44078;SDS011;29744;49.078;12.878;2022-07-29T02:02:50;2.97;;;2.17;;
44078;SDS011;29744;49.078;12.878;2022-07-29T02:07:52;3.78;;;2.40;;
44078;SDS011;29744;49.078;12.878;2022-07-29T02:12:55;2.67;;;1.95;;
44078;SDS011;29744;49.078;12.878;2022-07-29T02:17:59;3.35;;;2.30;;
44078;SDS011;29744;49.078;12.878;2022-07-29T02:23:03;3.27;;;2.23;;
44078;SDS011;29744;49.078;12.878;2022-07-29T02:28:05;2.92;;;2.03;;
44078;SDS011;29744;49.078;12.878;2022-07-29T02:33:07;3.13;;;2.35;;
44078;SDS011;29744;49.078;12.878;2022-07-29T02:38:11;3.30;;;2.20;;
44078;SDS011;29744;49.078;12.878;2022-07-29T02:43:32;3.30;;;2.28;;
44078;SDS011;29744;49.078;12.878;2022-07-29T02:48:36;3.33;;;2.42;;
44078;SDS011;29744;49.078;12.878;2022-07-29T02:53:38;3.17;;;2.22;;
44078;SDS011;29744;49.078;12.878;2022-07-29T02:58:44;3.38;;;2.38;;
44078;SDS011;29744;49.078;12.878;2022-07-29T03:03:46;3.38;;;2.30;;
44078;SDS011;29744;49.078;12.878;2022-07-29T03:08:50;3.05;;;2.22;;
44078;SDS011;29744;49.078;12.878;2022-07-29T03:13:51;3.35;;;2.30;;
44078;SDS011;29744;49.078;12.878;2022-07-29T03:18:52;3.45;;;2.35;;
44078;SDS011;29744;49.078;12.878;2022-07-29T03:23:53;3.08;;;2.20;;
44078;SDS011;29744;49.078;12.878;2022-07-29T03:28:54;3.45;;;2.20;;
44078;SDS011;29744;49.078;12.878;2022-07-29T03:33:54;3.30;;;2.22;;
44078;SDS011;29744;49.078;12.878;2022-07-29T03:38:55;3.70;;;2.40;;
44078;SDS011;29744;49.078;12.878;2022-07-29T03:43:56;4.05;;;2.33;;
44078;SDS011;29744;49.078;12.878;2022-07-29T03:49:01;3.63;;;2.30;;
44078;SDS011;29744;49.078;12.878;2022-07-29T03:54:04;3.08;;;2.40;;
44078;SDS011;29744;49.078;12.878;2022-07-29T03:59:05;3.10;;;2.20;;
44078;SDS011;29744;49.078;12.878;2022-07-29T04:04:06;2.65;;;1.85;;
44078;SDS011;29744;49.078;12.878;2022-07-29T04:09:07;3.58;;;2.35;;
44078;SDS011;29744;49.078;12.878;2022-07-29T04:14:07;2.97;;;2.10;;
44078;SDS011;29744;49.078;12.878;2022-07-29T04:19:08;3.40;;;2.40;;
44078;SDS011;29744;49.078;12.878;2022-07-29T04:24:08;3.20;;;2.40;;
44078;SDS011;29744;49.078;12.878;2022-07-29T04:29:08;4.30;;;2.70;;
44078;SDS011;29744;49.078;12.878;2022-07-29T04:34:09;2.97;;;2.33;;
44078;SDS011;29744;49.078;12.878;2022-07-29T04:39:09;3.08;;;2.40;;
44078;SDS011;29744;49.078;12.878;2022-07-29T04:44:10;3.13;;;2.30;;
44078;SDS011;29744;49.078;12.878;2022-07-29T04:49:11;3.00;;;2.45;;
44078;SDS011;29744;49.078;12.878;2022-07-29T04:54:11;3.95;;;2.72;;
44078;SDS011;29744;49.078;12.878;2022-07-29T04:59:11;3.47;;;2.28;;
44078;SDS011;29744;49.078;12.878;2022-07-29T05:04:12;3.38;;;2.50;;
44078;SDS011;29744;49.078;12.878;2022-07-29T05:09:12;3.55;;;2.33;;
44078;SDS011;29744;49.078;12.878;2022-07-29T05:14:12;4.25;;;2.45;;
44078;SDS011;29744;49.078;12.878;2022-07-29T05:19:13;3.42;;;2.25;;
44078;SDS011;29744;49.078;12.878;2022-07-29T05:24:13;3.03;;;2.25;;
44078;SDS011;29744;49.078;12.878;2022-07-29T05:29:13;3.10;;;2.30;;
44078;SDS011;29744;49.078;12.878;2022-07-29T05:34:13;3.00;;;2.22;;
44078;SDS011;29744;49.078;12.878;2022-07-29T05:39:14;4.03;;;2.63;;
44078;SDS011;29744;49.078;12.878;2022-07-29T05:44:14;3.25;;;2.45;;
44078;SDS011;29744;49.078;12.878;2022-07-29T05:49:15;4.55;;;2.50;;
44078;SDS011;29744;49.078;12.878;2022-07-29T05:54:15;3.20;;;2.42;;
44078;SDS011;29744;49.078;12.878;2022-07-29T05:59:15;3.97;;;2.25;;
44078;SDS011;29744;49.078;12.878;2022-07-29T06:04:16;3.95;;;2.33;;
44078;SDS011;29744;49.078;12.878;2022-07-29T06:09:16;4.22;;;2.80;;
44078;SDS011;29744;49.078;12.878;2022-07-29T06:14:16;3.72;;;2.38;;
44078;SDS011;29744;49.078;12.878;2022-07-29T06:19:17;3.15;;;2.33;;
44078;SDS011;29744;49.078;12.878;2022-07-29T06:24:17;3.60;;;2.28;;
44078;SDS011;29744;49.078;12.878;2022-07-29T06:29:17;3.53;;;2.25;;
44078;SDS011;29744;49.078;12.878;2022-07-29T06:34:18;3.65;;;2.70;;
44078;SDS011;29744;49.078;12.878;2022-07-29T06:39:19;3.47;;;2.20;;
44078;SDS011;29744;49.078;12.878;2022-07-29T06:44:19;3.33;;;2.15;;
44078;SDS011;29744;49.078;12.878;2022-07-29T06:49:20;3.88;;;2.55;;
44078;SDS011;29744;49.078;12.878;2022-07-29T06:54:20;3.72;;;2.45;;
44078;SDS011;29744;49.078;12.878;2022-07-29T06:59:21;3.10;;;2.13;;
44078;SDS011;29744;49.078;12.878;2022-07-29T07:04:21;3.60;;;2.57;;
44078;SDS011;29744;49.078;12.878;2022-07-29T07:09:22;4.47;;;2.85;;
44078;SDS011;29744;49.078;12.878;2022-07-29T07:14:22;3.45;;;2.58;;
44078;SDS011;29744;49.078;12.878;2022-07-29T07:19:22;2.92;;;2.10;;
44078;SDS011;29744;49.078;12.878;2022-07-29T07:24:22;3.28;;;2.33;;
44078;SDS011;29744;49.078;12.878;2022-07-29T07:29:23;3.70;;;2.60;;
44078;SDS011;29744;49.078;12.878;2022-07-29T07:34:23;3.42;;;2.28;;
44078;SDS011;29744;49.078;12.878;2022-07-29T07:39:23;3.25;;;2.42;;
44078;SDS011;29744;49.078;12.878;2022-07-29T07:44:25;3.08;;;2.20;;
44078;SDS011;29744;49.078;12.878;2022-07-29T07:49:26;3.27;;;2.30;;
44078;SDS011;29744;49.078;12.878;2022-07-29T07:54:26;3.08;;;2.25;;
44078;SDS011;29744;49.078;12.878;2022-07-29T07:59:26;3.40;;;2.30;;
44078;SDS011;29744;49.078;12.878;2022-07-29T08:04:27;3.40;;;2.50;;
44078;SDS011;29744;49.078;12.878;2022-07-29T08:09:27;3.60;;;2.42;;
44078;SDS011;29744;49.078;12.878;2022-07-29T08:14:29;4.05;;;2.55;;
44078;SDS011;29744;49.078;12.878;2022-07-29T08:19:30;3.70;;;2.65;;
44078;SDS011;29744;49.078;12.878;2022-07-29T08:24:30;6.13;;;2.73;;
44078;SDS011;29744;49.078;12.878;2022-07-29T08:29:43;3.50;;;2.42;;
44078;SDS011;29744;49.078;12.878;2022-07-29T08:34:43;4.07;;;2.95;;
44078;SDS011;29744;49.078;12.878;2022-07-29T08:39:46;4.15;;;2.58;;
44078;SDS011;29744;49.078;12.878;2022-07-29T08:44:46;5.03;;;2.90;;
44078;SDS011;29744;49.078;12.878;2022-07-29T08:49:47;3.70;;;3.00;;
44078;SDS011;29744;49.078;12.878;2022-07-29T08:54:48;4.60;;;3.10;;
44078;SDS011;29744;49.078;12.878;2022-07-29T08:59:49;3.92;;;2.70;;
44078;SDS011;29744;49.078;12.878;2022-07-29T09:04:52;4.50;;;2.70;;
44078;SDS011;29744;49.078;12.878;2022-07-29T09:09:52;5.25;;;3.00;;
44078;SDS011;29744;49.078;12.878;2022-07-29T09:14:53;4.38;;;2.92;;
44078;SDS011;29744;49.078;12.878;2022-07-29T09:19:54;3.92;;;2.60;;
44078;SDS011;29744;49.078;12.878;2022-07-29T09:25:10;4.45;;;2.70;;
44078;SDS011;29744;49.078;12.878;2022-07-29T09:30:14;4.63;;;2.75;;
44078;SDS011;29744;49.078;12.878;2022-07-29T09:40:17;5.55;;;2.83;;
44078;SDS011;29744;49.078;12.878;2022-07-29T09:45:32;3.83;;;2.73;;
44078;SDS011;29744;49.078;12.878;2022-07-29T09:50:34;4.47;;;3.05;;
44078;SDS011;29744;49.078;12.878;2022-07-29T09:55:48;4.15;;;3.00;;
44078;SDS011;29744;49.078;12.878;2022-07-29T10:00:54;4.65;;;2.85;;
44078;SDS011;29744;49.078;12.878;2022-07-29T10:06:05;5.97;;;2.90;;
44078;SDS011;29744;49.078;12.878;2022-07-29T10:16:12;4.43;;;3.10;;
44078;SDS011;29744;49.078;12.878;2022-07-29T10:21:13;4.57;;;3.00;;
44078;SDS011;29744;49.078;12.878;2022-07-29T10:26:13;4.82;;;3.33;;
44078;SDS011;29744;49.078;12.878;2022-07-29T10:31:19;3.80;;;2.95;;
44078;SDS011;29744;49.078;12.878;2022-07-29T10:36:43;4.03;;;3.03;;
44078;SDS011;29744;49.078;12.878;2022-07-29T10:46:58;4.60;;;3.40;;
44078;SDS011;29744;49.078;12.878;2022-07-29T10:52:03;4.53;;;3.13;;
44078;SDS011;29744;49.078;12.878;2022-07-29T10:57:14;4.63;;;3.10;;
44078;SDS011;29744;49.078;12.878;2022-07-29T11:07:37;5.03;;;3.10;;
44078;SDS011;29744;49.078;12.878;2022-07-29T11:22:52;5.35;;;3.55;;
44078;SDS011;29744;49.078;12.878;2022-07-29T11:27:53;4.40;;;3.27;;
44078;SDS011;29744;49.078;12.878;2022-07-29T11:33:08;5.15;;;3.50;;
44078;SDS011;29744;49.078;12.878;2022-07-29T11:38:27;4.88;;;3.35;;
44078;SDS011;29744;49.078;12.878;2022-07-29T11:43:47;4.47;;;3.30;;
44078;SDS011;29744;49.078;12.878;2022-07-29T11:48:47;4.70;;;3.75;;
44078;SDS011;29744;49.078;12.878;2022-07-29T11:53:48;5.97;;;3.70;;
44078;SDS011;29744;49.078;12.878;2022-07-29T11:58:50;4.53;;;3.65;;
44078;SDS011;29744;49.078;12.878;2022-07-29T12:03:50;4.85;;;3.40;;
44078;SDS011;29744;49.078;12.878;2022-07-29T12:09:09;5.00;;;3.72;;
44078;SDS011;29744;49.078;12.878;2022-07-29T12:14:09;5.65;;;4.00;;
44078;SDS011;29744;49.078;12.878;2022-07-29T12:19:31;4.30;;;3.33;;
44078;SDS011;29744;49.078;12.878;2022-07-29T12:24:43;5.55;;;3.50;;
44078;SDS011;29744;49.078;12.878;2022-07-29T12:29:45;5.45;;;3.67;;
44078;SDS011;29744;49.078;12.878;2022-07-29T12:34:55;5.43;;;3.80;;
44078;SDS011;29744;49.078;12.878;2022-07-29T12:39:55;4.95;;;3.72;;
44078;SDS011;29744;49.078;12.878;2022-07-29T12:44:55;4.72;;;3.50;;
44078;SDS011;29744;49.078;12.878;2022-07-29T12:50:12;4.75;;;3.60;;
44078;SDS011;29744;49.078;12.878;2022-07-29T13:00:40;4.60;;;3.33;;
44078;SDS011;29744;49.078;12.878;2022-07-29T13:05:41;5.30;;;3.75;;
44078;SDS011;29744;49.078;12.878;2022-07-29T13:10:45;5.82;;;3.70;;
44078;SDS011;29744;49.078;12.878;2022-07-29T13:15:45;4.40;;;3.08;;
44078;SDS011;29744;49.078;12.878;2022-07-29T13:20:48;4.35;;;3.53;;
44078;SDS011;29744;49.078;12.878;2022-07-29T13:25:49;4.97;;;3.72;;
44078;SDS011;29744;49.078;12.878;2022-07-29T13:30:49;4.30;;;3.38;;
44078;SDS011;29744;49.078;12.878;2022-07-29T13:35:50;4.60;;;3.42;;
44078;SDS011;29744;49.078;12.878;2022-07-29T13:40:50;4.72;;;3.25;;
44078;SDS011;29744;49.078;12.878;2022-07-29T13:45:50;5.00;;;3.10;;
44078;SDS011;29744;49.078;12.878;2022-07-29T13:50:51;4.50;;;3.08;;
44078;SDS011;29744;49.078;12.878;2022-07-29T13:55:52;3.80;;;2.85;;
44078;SDS011;29744;49.078;12.878;2022-07-29T14:00:53;5.15;;;3.08;;
44078;SDS011;29744;49.078;12.878;2022-07-29T14:05:53;3.92;;;2.88;;
44078;SDS011;29744;49.078;12.878;2022-07-29T14:10:54;4.00;;;2.97;;
44078;SDS011;29744;49.078;12.878;2022-07-29T14:15:54;4.80;;;2.88;;
44078;SDS011;29744;49.078;12.878;2022-07-29T14:20:54;4.15;;;2.97;;
44078;SDS011;29744;49.078;12.878;2022-07-29T14:25:55;4.72;;;3.22;;
44078;SDS011;29744;49.078;12.878;2022-07-29T14:30:55;4.53;;;3.25;;
44078;SDS011;29744;49.078;12.878;2022-07-29T14:35:56;4.80;;;2.85;;
44078;SDS011;29744;49.078;12.878;2022-07-29T14:40:56;3.85;;;2.67;;
44078;SDS011;29744;49.078;12.878;2022-07-29T14:45:56;3.85;;;2.65;;
44078;SDS011;29744;49.078;12.878;2022-07-29T14:50:56;4.07;;;2.70;;
44078;SDS011;29744;49.078;12.878;2022-07-29T14:55:58;4.07;;;2.90;;
44078;SDS011;29744;49.078;12.878;2022-07-29T15:00:59;3.70;;;2.40;;
44078;SDS011;29744;49.078;12.878;2022-07-29T15:05:59;3.60;;;2.30;;
44078;SDS011;29744;49.078;12.878;2022-07-29T15:10:59;3.78;;;2.40;;
44078;SDS011;29744;49.078;12.878;2022-07-29T15:16:00;4.53;;;2.60;;
44078;SDS011;29744;49.078;12.878;2022-07-29T15:21:01;4.10;;;2.57;;
44078;SDS011;29744;49.078;12.878;2022-07-29T15:26:02;3.97;;;2.60;;
44078;SDS011;29744;49.078;12.878;2022-07-29T15:31:03;3.15;;;2.30;;
44078;SDS011;29744;49.078;12.878;2022-07-29T15:36:04;3.25;;;2.25;;
44078;SDS011;29744;49.078;12.878;2022-07-29T15:41:04;3.72;;;2.50;;
44078;SDS011;29744;49.078;12.878;2022-07-29T15:46:05;5.00;;;2.80;;
44078;SDS011;29744;49.078;12.878;2022-07-29T15:51:24;5.35;;;2.67;;
44078;SDS011;29744;49.078;12.878;2022-07-29T15:56:24;5.45;;;2.67;;
44078;SDS011;29744;49.078;12.878;2022-07-29T16:01:24;4.82;;;2.70;;
44078;SDS011;29744;49.078;12.878;2022-07-29T16:06:25;3.90;;;2.53;;
44078;SDS011;29744;49.078;12.878;2022-07-29T16:11:26;4.20;;;2.28;;
44078;SDS011;29744;49.078;12.878;2022-07-29T16:16:26;4.15;;;2.50;;
44078;SDS011;29744;49.078;12.878;2022-07-29T16:21:27;4.13;;;2.63;;
44078;SDS011;29744;49.078;12.878;2022-07-29T16:26:27;5.00;;;2.58;;
44078;SDS011;29744;49.078;12.878;2022-07-29T16:31:27;3.72;;;2.70;;
44078;SDS011;29744;49.078;12.878;2022-07-29T16:36:28;3.50;;;2.50;;
44078;SDS011;29744;49.078;12.878;2022-07-29T16:41:28;3.42;;;2.20;;
44078;SDS011;29744;49.078;12.878;2022-07-29T16:46:28;3.47;;;2.30;;
44078;SDS011;29744;49.078;12.878;2022-07-29T16:51:29;3.90;;;2.35;;
44078;SDS011;29744;49.078;12.878;2022-07-29T16:56:29;3.53;;;2.20;;
44078;SDS011;29744;49.078;12.878;2022-07-29T17:01:30;3.25;;;2.17;;
44078;SDS011;29744;49.078;12.878;2022-07-29T17:06:30;3.97;;;2.40;;
44078;SDS011;29744;49.078;12.878;2022-07-29T17:11:34;3.55;;;2.45;;
44078;SDS011;29744;49.078;12.878;2022-07-29T17:16:35;3.63;;;2.35;;
44078;SDS011;29744;49.078;12.878;2022-07-29T17:21:36;3.78;;;2.40;;
44078;SDS011;29744;49.078;12.878;2022-07-29T17:26:36;2.63;;;2.08;;
44078;SDS011;29744;49.078;12.878;2022-07-29T17:31:38;4.75;;;2.60;;
44078;SDS011;29744;49.078;12.878;2022-07-29T17:36:39;3.50;;;2.08;;
44078;SDS011;29744;49.078;12.878;2022-07-29T17:41:39;3.10;;;2.15;;
44078;SDS011;29744;49.078;12.878;2022-07-29T17:46:40;4.00;;;2.10;;
44078;SDS011;29744;49.078;12.878;2022-07-29T17:51:40;4.25;;;2.53;;
44078;SDS011;29744;49.078;12.878;2022-07-29T17:56:40;3.40;;;2.25;;
44078;SDS011;29744;49.078;12.878;2022-07-29T18:01:40;3.17;;;2.20;;
44078;SDS011;29744;49.078;12.878;2022-07-29T18:06:41;3.30;;;2.25;;
44078;SDS011;29744;49.078;12.878;2022-07-29T18:11:41;2.75;;;1.90;;
44078;SDS011;29744;49.078;12.878;2022-07-29T18:16:41;2.55;;;1.75;;
44078;SDS011;29744;49.078;12.878;2022-07-29T18:21:42;2.92;;;1.88;;
44078;SDS011;29744;49.078;12.878;2022-07-29T18:26:42;3.70;;;1.92;;
44078;SDS011;29744;49.078;12.878;2022-07-29T18:31:42;3.10;;;1.80;;
44078;SDS011;29744;49.078;12.878;2022-07-29T18:36:43;2.85;;;1.90;;
44078;SDS011;29744;49.078;12.878;2022-07-29T18:41:44;3.33;;;2.00;;
44078;SDS011;29744;49.078;12.878;2022-07-29T18:46:45;3.55;;;1.98;;
44078;SDS011;29744;49.078;12.878;2022-07-29T18:51:45;4.00;;;2.20;;
44078;SDS011;29744;49.078;12.878;2022-07-29T18:56:46;2.58;;;1.90;;
44078;SDS011;29744;49.078;12.878;2022-07-29T19:01:46;2.78;;;1.70;;
44078;SDS011;29744;49.078;12.878;2022-07-29T19:06:47;2.80;;;1.70;;
44078;SDS011;29744;49.078;12.878;2022-07-29T19:11:47;3.13;;;1.90;;
44078;SDS011;29744;49.078;12.878;2022-07-29T19:16:48;2.92;;;1.90;;
44078;SDS011;29744;49.078;12.878;2022-07-29T19:21:48;2.78;;;1.80;;
44078;SDS011;29744;49.078;12.878;2022-07-29T19:26:48;2.95;;;1.95;;
44078;SDS011;29744;49.078;12.878;2022-07-29T19:31:49;2.70;;;1.93;;
44078;SDS011;29744;49.078;12.878;2022-07-29T19:36:49;2.50;;;1.63;;
44078;SDS011;29744;49.078;12.878;2022-07-29T19:41:49;2.92;;;1.83;;
44078;SDS011;29744;49.078;12.878;2022-07-29T19:46:49;2.83;;;1.58;;
44078;SDS011;29744;49.078;12.878;2022-07-29T19:51:50;2.78;;;1.70;;
44078;SDS011;29744;49.078;12.878;2022-07-29T19:56:50;3.13;;;1.98;;
44078;SDS011;29744;49.078;12.878;2022-07-29T20:01:50;2.33;;;1.60;;
44078;SDS011;29744;49.078;12.878;2022-07-29T20:06:51;2.13;;;1.50;;
44078;SDS011;29744;49.078;12.878;2022-07-29T20:11:54;2.53;;;1.70;;
44078;SDS011;29744;49.078;12.878;2022-07-29T20:16:54;2.70;;;1.80;;
44078;SDS011;29744;49.078;12.878;2022-07-29T20:21:55;2.53;;;1.73;;
44078;SDS011;29744;49.078;12.878;2022-07-29T20:26:55;2.50;;;1.65;;
44078;SDS011;29744;49.078;12.878;2022-07-29T20:31:55;2.57;;;1.60;;
44078;SDS011;29744;49.078;12.878;2022-07-29T20:36:56;2.40;;;1.67;;
44078;SDS011;29744;49.078;12.878;2022-07-29T20:41:56;2.15;;;1.40;;
44078;SDS011;29744;49.078;12.878;2022-07-29T20:46:57;2.63;;;1.70;;
44078;SDS011;29744;49.078;12.878;2022-07-29T20:51:57;2.50;;;1.50;;
44078;SDS011;29744;49.078;12.878;2022-07-29T20:56:57;2.90;;;1.60;;
44078;SDS011;29744;49.078;12.878;2022-07-29T21:01:58;2.08;;;1.50;;
44078;SDS011;29744;49.078;12.878;2022-07-29T21:06:58;2.30;;;1.50;;
44078;SDS011;29744;49.078;12.878;2022-07-29T21:11:58;2.63;;;1.70;;
44078;SDS011;29744;49.078;12.878;2022-07-29T21:16:59;2.58;;;1.67;;
44078;SDS011;29744;49.078;12.878;2022-07-29T21:22:00;2.45;;;1.45;;
44078;SDS011;29744;49.078;12.878;2022-07-29T21:27:01;2.15;;;1.48;;
44078;SDS011;29744;49.078;12.878;2022-07-29T21:32:20;2.15;;;1.40;;
44078;SDS011;29744;49.078;12.878;2022-07-29T21:37:20;2.50;;;1.60;;
44078;SDS011;29744;49.078;12.878;2022-07-29T21:42:21;1.70;;;1.20;;
44078;SDS011;29744;49.078;12.878;2022-07-29T21:47:21;2.15;;;1.38;;
44078;SDS011;29744;49.078;12.878;2022-07-29T21:52:21;2.20;;;1.48;;
44078;SDS011;29744;49.078;12.878;2022-07-29T21:57:22;2.53;;;1.80;;
44078;SDS011;29744;49.078;12.878;2022-07-29T22:02:22;2.30;;;1.40;;
44078;SDS011;29744;49.078;12.878;2022-07-29T22:07:22;1.73;;;1.30;;
44078;SDS011;29744;49.078;12.878;2022-07-29T22:12:23;2.22;;;1.40;;
44078;SDS011;29744;49.078;12.878;2022-07-29T22:17:23;2.08;;;1.30;;
44078;SDS011;29744;49.078;12.878;2022-07-29T22:22:23;2.30;;;1.50;;
44078;SDS011;29744;49.078;12.878;2022-07-29T22:27:24;2.22;;;1.58;;
44078;SDS011;29744;49.078;12.878;2022-07-29T22:32:24;2.10;;;1.40;;
44078;SDS011;29744;49.078;12.878;2022-07-29T22:37:24;2.50;;;1.60;;
44078;SDS011;29744;49.078;12.878;2022-07-29T22:42:25;1.85;;;1.30;;
44078;SDS011;29744;49.078;12.878;2022-07-29T22:47:25;2.25;;;1.40;;
44078;SDS011;29744;49.078;12.878;2022-07-29T22:52:26;1.80;;;1.27;;
44078;SDS011;29744;49.078;12.878;2022-07-29T22:57:26;1.92;;;1.23;;
44078;SDS011;29744;49.078;12.878;2022-07-29T23:02:27;1.77;;;1.30;;
44078;SDS011;29744;49.078;12.878;2022-07-29T23:07:27;1.52;;;1.15;;
44078;SDS011;29744;49.078;12.878;2022-07-29T23:12:28;1.60;;;1.10;;
44078;SDS011;29744;49.078;12.878;2022-07-29T23:17:28;1.95;;;1.20;;
44078;SDS011;29744;49.078;12.878;2022-07-29T23:22:28;2.00;;;1.20;;
44078;SDS011;29744;49.078;12.878;2022-07-29T23:27:28;1.50;;;1.27;;
44078;SDS011;29744;49.078;12.878;2022-07-29T23:32:29;2.00;;;1.15;;
44078;SDS011;29744;49.078;12.878;2022-07-29T23:37:29;1.98;;;1.20;;
44078;SDS011;29744;49.078;12.878;2022-07-29T23:42:29;1.95;;;1.30;;
44078;SDS011;29744;49.078;12.878;2022-07-29T23:47:30;1.95;;;1.38;;
44078;SDS011;29744;49.078;12.878;2022-07-29T23:52:31;1.80;;;1.25;;
44078;SDS011;29744;49.078;12.878;2022-07-29T23:57:31;1.52;;;1.23;;
